createdAt,value
2023-04-10T00:01:57.157Z,3.09
2023-04-10T00:07:21.493Z,2.98
2023-04-10T00:12:43.864Z,2.83
2023-04-10T00:18:06.207Z,2.67
2023-04-10T00:23:28.543Z,2.48
2023-04-10T00:28:50.864Z,2.18
2023-04-10T00:34:14.498Z,1.92
2023-04-10T00:39:36.810Z,1.86
2023-04-10T00:44:59.162Z,1.92
2023-04-10T00:50:21.762Z,1.86
2023-04-10T00:55:44.692Z,1.83
2023-04-10T01:01:08.908Z,1.76
2023-04-10T01:06:51.916Z,1.63
2023-04-10T01:12:36.526Z,1.48
2023-04-10T01:18:10.193Z,1.36
2023-04-10T01:23:58.500Z,1.14
2023-04-10T01:29:24.731Z,1.08
2023-04-10T01:34:59.750Z,0.95
2023-04-10T01:40:24.496Z,0.88
2023-04-10T01:45:47.093Z,0.87
2023-04-10T01:51:10.653Z,0.80
2023-04-10T01:56:35.510Z,0.67
2023-04-10T02:01:59.546Z,0.67
2023-04-10T02:07:30.597Z,1.02
2023-04-10T02:13:08.481Z,0.88
2023-04-10T02:18:31.895Z,0.81
2023-04-10T02:23:54.912Z,0.66
2023-04-10T02:29:18.034Z,0.49
2023-04-10T02:34:40.307Z,0.34
2023-04-10T02:40:02.652Z,0.14
2023-04-10T02:45:25.743Z,0.08
2023-04-10T02:50:48.028Z,0.01
2023-04-10T02:56:12.945Z,-0.05
2023-04-10T03:01:35.780Z,-0.12
2023-04-10T03:06:58.181Z,-0.12
2023-04-10T03:12:21.132Z,0.09
2023-04-10T03:17:43.508Z,0.06
2023-04-10T03:23:06.726Z,0.43
2023-04-10T03:28:30.246Z,0.73
2023-04-10T03:33:52.845Z,0.96
2023-04-10T03:39:15.615Z,1.25
2023-04-10T03:44:38.238Z,1.49
2023-04-10T03:50:00.871Z,1.64
2023-04-10T03:55:23.325Z,1.83
2023-04-10T04:00:46.275Z,1.98
2023-04-10T04:06:08.587Z,2.20
2023-04-10T04:11:31.695Z,2.32
2023-04-10T04:16:54.703Z,2.38
2023-04-10T04:22:17.550Z,2.47
2023-04-10T04:27:39.985Z,2.52
2023-04-10T04:33:02.363Z,2.57
2023-04-10T04:38:24.617Z,2.59
2023-04-10T04:43:47.946Z,2.63
2023-04-10T04:49:10.191Z,2.75
2023-04-10T04:54:32.525Z,2.84
2023-04-10T04:59:54.764Z,2.92
2023-04-10T05:05:17.101Z,3.02
2023-04-10T05:10:39.929Z,3.14
2023-04-10T05:16:02.668Z,3.33
2023-04-10T05:21:25.105Z,3.49
2023-04-10T05:26:48.226Z,3.57
2023-04-10T05:32:10.617Z,3.66
2023-04-10T05:37:33.372Z,3.75
2023-04-10T05:42:55.659Z,3.84
2023-04-10T05:48:19.199Z,3.91
2023-04-10T05:53:45.258Z,4.02
2023-04-10T05:59:07.551Z,4.11
2023-04-10T06:04:30.210Z,4.17
2023-04-10T06:09:52.656Z,4.21
2023-04-10T06:15:15.014Z,4.21
2023-04-10T06:20:37.966Z,4.24
2023-04-10T06:26:00.589Z,4.37
2023-04-10T06:31:25.938Z,4.51
2023-04-10T06:36:48.285Z,4.71
2023-04-10T06:42:10.667Z,4.90
2023-04-10T06:47:32.931Z,5.01
2023-04-10T06:52:56.812Z,5.05
2023-04-10T06:58:19.033Z,5.22
2023-04-10T07:03:41.534Z,5.40
2023-04-10T07:09:03.840Z,5.55
2023-04-10T07:14:26.784Z,5.96
2023-04-10T07:19:49.089Z,6.15
2023-04-10T07:25:11.527Z,6.49
2023-04-10T07:30:33.771Z,6.53
2023-04-10T07:35:56.030Z,6.71
2023-04-10T07:41:18.861Z,6.83
2023-04-10T07:46:42.002Z,7.12
2023-04-10T07:52:04.317Z,7.48
2023-04-10T07:57:26.997Z,7.80
2023-04-10T08:02:49.379Z,7.91
2023-04-10T08:08:12.761Z,8.38
2023-04-10T08:13:35.201Z,8.78
2023-04-10T08:18:58.043Z,9.07
2023-04-10T08:24:23.103Z,9.45
2023-04-10T08:29:46.557Z,9.65
2023-04-10T08:35:09.162Z,10.13
2023-04-10T08:40:31.555Z,10.63
2023-04-10T08:45:54.322Z,10.76
2023-04-10T08:51:27.259Z,10.91
2023-04-10T08:56:54.063Z,10.78
2023-04-10T09:02:18.644Z,10.61
2023-04-10T09:07:42.560Z,10.63
2023-04-10T09:13:05.711Z,10.69
2023-04-10T09:18:27.942Z,10.85
2023-04-10T09:23:51.052Z,11.01
2023-04-10T09:29:19.599Z,11.11
2023-04-10T09:34:44.369Z,11.33
2023-04-10T09:40:06.761Z,11.46
2023-04-10T09:45:29.298Z,11.57
2023-04-10T09:50:58.152Z,12.59
2023-04-10T09:56:22.033Z,13.68
2023-04-10T10:01:48.872Z,14.17
2023-04-10T10:07:11.769Z,14.82
2023-04-10T10:12:47.877Z,14.62
2023-04-10T10:18:40.848Z,15.29
2023-04-10T10:24:05.536Z,15.55
2023-04-10T10:29:29.019Z,15.32
2023-04-10T10:34:52.632Z,16.35
2023-04-10T10:40:36.619Z,16.76
2023-04-10T10:46:07.054Z,16.96
2023-04-10T10:51:29.342Z,16.58
2023-04-10T10:56:54.928Z,17.15
2023-04-10T11:02:36.440Z,17.08
2023-04-10T11:08:14.528Z,17.15
2023-04-10T11:13:58.353Z,17.95
2023-04-10T11:19:24.469Z,18.39
2023-04-10T11:25:09.192Z,18.40
2023-04-10T11:30:49.724Z,18.49
2023-04-10T11:36:13.183Z,17.89
2023-04-10T11:41:37.953Z,18.44
2023-04-10T11:47:00.763Z,18.86
2023-04-10T11:52:24.846Z,19.41
2023-04-10T11:57:49.671Z,18.30
2023-04-10T12:03:12.143Z,19.03
2023-04-10T12:08:43.057Z,19.02
2023-04-10T12:14:08.938Z,19.31
2023-04-10T12:19:32.088Z,19.57
2023-04-10T12:25:08.260Z,17.80
2023-04-10T12:30:30.645Z,19.10
2023-04-10T12:35:57.759Z,18.64
2023-04-10T12:41:21.552Z,19.39
2023-04-10T12:46:46.609Z,19.83
2023-04-10T12:52:10.531Z,20.82
2023-04-10T12:57:41.050Z,21.30
2023-04-10T13:03:04.219Z,19.17
2023-04-10T13:08:27.644Z,17.60
2023-04-10T13:13:50.164Z,19.60
2023-04-10T13:19:13.297Z,19.37
2023-04-10T13:24:37.168Z,19.59
2023-04-10T13:30:00.501Z,20.60
2023-04-10T13:35:23.000Z,20.74
2023-04-10T13:40:45.356Z,20.34
2023-04-10T13:46:07.628Z,20.83
2023-04-10T13:51:30.588Z,21.12
2023-04-10T13:56:54.472Z,21.46
2023-04-10T14:02:16.764Z,20.94
2023-04-10T14:07:39.332Z,21.66
2023-04-10T14:13:01.570Z,21.35
2023-04-10T14:18:23.928Z,20.83
2023-04-10T14:23:47.441Z,20.53
2023-04-10T14:29:09.834Z,20.63
2023-04-10T14:34:32.294Z,19.84
2023-04-10T14:39:54.652Z,19.52
2023-04-10T14:45:18.324Z,19.65
2023-04-10T14:50:41.154Z,18.39
2023-04-10T14:56:03.396Z,17.51
2023-04-10T15:01:29.623Z,16.73
2023-04-10T15:06:53.638Z,16.36
2023-04-10T15:12:16.008Z,15.84
2023-04-10T15:17:39.950Z,15.71
2023-04-10T15:23:02.571Z,15.76
2023-04-10T15:28:25.005Z,15.55
2023-04-10T15:33:47.447Z,15.36
2023-04-10T15:39:09.732Z,15.18
2023-04-10T15:44:33.978Z,15.11
2023-04-10T15:49:56.371Z,15.03
2023-04-10T15:55:19.155Z,14.99
2023-04-10T16:00:41.509Z,14.88
2023-04-10T16:06:04.211Z,14.71
2023-04-10T16:11:26.836Z,14.80
2023-04-10T16:16:49.096Z,14.63
2023-04-10T16:22:11.548Z,14.76
2023-04-10T16:27:33.919Z,14.67
2023-04-10T16:32:56.636Z,14.95
2023-04-10T16:38:18.903Z,14.86
2023-04-10T16:43:41.251Z,15.20
2023-04-10T16:49:04.883Z,15.65
2023-04-10T16:54:28.073Z,15.44
2023-04-10T16:59:51.019Z,14.84
2023-04-10T17:05:13.904Z,14.72
2023-04-10T17:10:37.930Z,13.91
2023-04-10T17:16:00.238Z,13.13
2023-04-10T17:21:27.444Z,12.26
2023-04-10T17:26:49.996Z,11.71
2023-04-10T17:32:13.234Z,11.25
2023-04-10T17:37:35.854Z,10.83
2023-04-10T17:42:58.758Z,10.59
2023-04-10T17:48:21.178Z,10.52
2023-04-10T17:53:43.720Z,10.27
2023-04-10T17:59:06.481Z,10.10
2023-04-10T18:04:30.238Z,9.90
2023-04-10T18:09:53.871Z,9.67
2023-04-10T18:15:16.973Z,9.55
2023-04-10T18:20:41.400Z,9.34
2023-04-10T18:26:09.781Z,9.09
2023-04-10T18:31:32.404Z,8.98
2023-04-10T18:36:56.166Z,9.01
2023-04-10T18:42:26.181Z,8.90
2023-04-10T18:47:49.388Z,8.71
2023-04-10T18:53:13.274Z,8.65
2023-04-10T18:58:37.274Z,8.56
2023-04-10T19:04:00.704Z,8.49
2023-04-10T19:09:24.441Z,8.46
2023-04-10T19:14:49.625Z,8.40
2023-04-10T19:20:14.569Z,8.34
2023-04-10T19:25:37.579Z,8.16
2023-04-10T19:31:01.938Z,8.09
2023-04-10T19:36:25.374Z,7.92
2023-04-10T19:41:48.568Z,7.69
2023-04-10T19:47:10.896Z,7.59
2023-04-10T19:52:33.493Z,7.53
2023-04-10T19:57:56.568Z,7.30
2023-04-10T20:03:21.123Z,7.27
2023-04-10T20:08:44.424Z,7.26
2023-04-10T20:14:06.846Z,7.30
2023-04-10T20:19:29.193Z,7.07
2023-04-10T20:24:51.509Z,6.78
2023-04-10T20:30:14.154Z,6.84
2023-04-10T20:35:37.799Z,6.84
2023-04-10T20:41:00.256Z,6.91
2023-04-10T20:46:23.177Z,6.65
2023-04-10T20:51:46.186Z,6.55
2023-04-10T20:57:08.768Z,6.31
2023-04-10T21:02:31.209Z,6.41
2023-04-10T21:07:54.561Z,6.46
2023-04-10T21:13:18.567Z,6.41
2023-04-10T21:18:41.459Z,6.38
2023-04-10T21:24:04.046Z,6.45
2023-04-10T21:29:26.826Z,6.65
2023-04-10T21:34:49.119Z,6.66
2023-04-10T21:40:12.356Z,6.67
2023-04-10T21:45:38.069Z,6.69
2023-04-10T21:51:02.138Z,6.39
2023-04-10T21:56:25.291Z,6.39
2023-04-10T22:01:48.092Z,6.20
2023-04-10T22:07:10.649Z,6.16
2023-04-10T22:12:32.965Z,6.12
2023-04-10T22:17:55.215Z,6.20
2023-04-10T22:23:19.116Z,6.10
2023-04-10T22:28:41.490Z,6.03
2023-04-10T22:34:03.887Z,5.94
2023-04-10T22:39:26.558Z,5.73
2023-04-10T22:44:48.845Z,5.85
2023-04-10T22:50:11.734Z,5.68
2023-04-10T22:55:34.015Z,5.64
2023-04-10T23:00:56.663Z,5.65
2023-04-10T23:06:19.119Z,5.55
2023-04-10T23:11:41.416Z,5.51
2023-04-10T23:17:06.760Z,5.52
2023-04-10T23:22:29.125Z,5.37
2023-04-10T23:27:52.729Z,5.25
2023-04-10T23:33:15.279Z,5.29
2023-04-10T23:38:38.204Z,5.19
2023-04-10T23:44:00.479Z,5.25
2023-04-10T23:49:22.849Z,5.08
2023-04-10T23:54:45.666Z,5.05
